TimeAKST,TemperatureF,Dew PointF,Humidity,Sea Level PressureIn,VisibilityMPH,Wind Direction,Wind SpeedMPH,Gust SpeedMPH,PrecipitationIn,Events,Conditions,WindDirDegrees,DateUTC
12:53 AM,30.9,21.0,67,29.17,10.0,West,9.2,-,N/A,,Scattered Clouds,270,2012-12-15 09:53:00
1:53 AM,30.9,19.9,64,29.18,10.0,WNW,12.7,20.7,N/A,,Scattered Clouds,290,2012-12-15 10:53:00
3:53 AM,28.9,19.0,67,29.19,10.0,West,11.5,-,N/A,,Scattered Clouds,280,2012-12-15 12:53:00
4:53 AM,28.0,18.0,66,29.20,10.0,West,9.2,-,N/A,,Scattered Clouds,260,2012-12-15 13:53:00
5:53 AM,28.0,16.0,61,29.18,10.0,WNW,8.1,21.9,N/A,,Scattered Clouds,300,2012-12-15 14:53:00
6:53 AM,28.0,16.0,61,29.17,10.0,WNW,15.0,24.2,N/A,,Scattered Clouds,290,2012-12-15 15:53:00
7:53 AM,28.0,16.0,61,29.16,10.0,WNW,23.0,28.8,N/A,,Partly Cloudy,290,2012-12-15 16:53:00
8:53 AM,28.0,15.1,58,29.16,10.0,WNW,20.7,31.1,N/A,,Partly Cloudy,300,2012-12-15 17:53:00
9:53 AM,28.0,15.1,58,29.18,10.0,West,18.4,35.7,N/A,,Partly Cloudy,270,2012-12-15 18:53:00
10:53 AM,28.0,14.0,56,29.19,10.0,WNW,20.7,29.9,N/A,,Partly Cloudy,290,2012-12-15 19:53:00
11:53 AM,26.1,15.1,63,29.19,9.0,WNW,21.9,29.9,0.00,Snow,Light Snow,300,2012-12-15 20:53:00
12:53 PM,26.1,10.9,53,29.20,10.0,West,19.6,26.5,0.00,,Partly Cloudy,270,2012-12-15 21:53:00
1:53 PM,26.1,12.0,55,29.17,10.0,West,28.8,41.4,0.00,Snow,Light Snow,280,2012-12-15 22:53:00
2:53 PM,25.0,7.0,46,29.16,10.0,West,26.5,41.4,0.00,,Partly Cloudy,280,2012-12-15 23:53:00
3:53 PM,25.0,6.1,45,29.17,10.0,West,26.5,42.6,N/A,,Partly Cloudy,270,2012-12-16 00:53:00
4:53 PM,24.1,7.0,48,29.17,10.0,West,32.2,47.2,N/A,,Scattered Clouds,280,2012-12-16 01:53:00
5:53 PM,24.1,5.0,44,29.17,10.0,West,29.9,43.7,N/A,,Partly Cloudy,280,2012-12-16 02:53:00
6:53 PM,21.9,3.0,44,29.17,10.0,West,34.5,49.5,N/A,,Partly Cloudy,280,2012-12-16 03:53:00
7:53 PM,21.0,-0.9,38,29.19,10.0,WNW,21.9,48.3,N/A,,Partly Cloudy,290,2012-12-16 04:53:00
8:53 PM,19.0,-6.0,33,29.24,10.0,WNW,23.0,39.1,N/A,,Scattered Clouds,290,2012-12-16 05:53:00
9:53 PM,19.0,-7.1,31,29.25,10.0,WNW,28.8,43.7,N/A,,Scattered Clouds,290,2012-12-16 06:53:00
10:53 PM,19.0,-7.1,31,29.25,10.0,WNW,32.2,42.6,N/A,,Partly Cloudy,290,2012-12-16 07:53:00
11:53 PM,19.9,-6.0,32,29.25,10.0,WNW,28.8,43.7,N/A,,Clear,290,2012-12-16 08:53:00